createdAt,value
2017-10-19T00:00:43.436Z,3.00
2017-10-19T00:01:44.719Z,2.70
2017-10-19T00:02:46.047Z,3.05
2017-10-19T00:03:47.344Z,3.35
2017-10-19T00:04:48.669Z,2.95
2017-10-19T00:05:49.957Z,3.00
2017-10-19T00:06:51.241Z,2.92
2017-10-19T00:07:52.664Z,3.35
2017-10-19T00:08:54.705Z,3.22
2017-10-19T00:09:56.003Z,3.10
2017-10-19T00:10:57.293Z,3.20
2017-10-19T00:11:59.308Z,3.30
2017-10-19T00:13:00.604Z,3.53
2017-10-19T00:14:01.901Z,3.40
2017-10-19T00:15:03.175Z,3.35
2017-10-19T00:16:04.480Z,3.42
2017-10-19T00:17:06.533Z,3.30
2017-10-19T00:18:07.865Z,3.40
2017-10-19T00:19:09.190Z,2.90
2017-10-19T00:20:10.475Z,3.10
2017-10-19T00:21:11.788Z,2.75
2017-10-19T00:22:13.072Z,2.97
2017-10-19T00:23:14.397Z,3.10
2017-10-19T00:24:15.735Z,2.78
2017-10-19T00:25:17.020Z,2.53
2017-10-19T00:26:18.317Z,2.70
2017-10-19T00:27:19.614Z,2.65
2017-10-19T00:28:21.669Z,2.53
2017-10-19T00:29:22.988Z,2.90
2017-10-19T00:30:24.300Z,2.78
2017-10-19T00:31:25.589Z,2.55
2017-10-19T00:32:27.619Z,2.35
2017-10-19T00:33:28.936Z,2.62
2017-10-19T00:34:30.236Z,2.40
2017-10-19T00:35:31.525Z,2.28
2017-10-19T00:36:32.813Z,2.78
2017-10-19T00:37:34.116Z,2.53
2017-10-19T00:38:35.936Z,2.50
2017-10-19T00:39:37.254Z,2.30
2017-10-19T00:40:38.568Z,2.55
2017-10-19T00:41:41.459Z,2.65
2017-10-19T00:42:42.775Z,2.28
2017-10-19T00:43:44.854Z,2.50
2017-10-19T00:44:46.144Z,2.62
2017-10-19T00:45:47.526Z,2.50
2017-10-19T00:46:48.829Z,2.80
2017-10-19T00:47:50.151Z,3.03
2017-10-19T00:48:52.317Z,2.30
2017-10-19T00:49:53.601Z,2.28
2017-10-19T00:50:54.911Z,2.70
2017-10-19T00:51:56.946Z,2.50
2017-10-19T00:52:58.258Z,2.47
2017-10-19T00:53:59.580Z,3.00
2017-10-19T00:55:00.876Z,2.72
2017-10-19T00:56:02.947Z,2.30
2017-10-19T00:57:04.263Z,2.42
2017-10-19T00:58:06.333Z,2.50
2017-10-19T00:59:08.543Z,2.65
2017-10-19T01:00:09.998Z,3.00
2017-10-19T01:01:11.300Z,2.55
2017-10-19T01:02:12.586Z,2.70
2017-10-19T01:03:13.837Z,2.55
2017-10-19T01:04:16.671Z,2.42
2017-10-19T01:05:18.891Z,2.62
2017-10-19T01:06:20.200Z,2.80
2017-10-19T01:07:21.557Z,2.72
2017-10-19T01:08:23.876Z,2.47
2017-10-19T01:09:25.237Z,2.65
2017-10-19T01:10:26.536Z,2.50
2017-10-19T01:11:27.836Z,2.20
2017-10-19T01:12:29.153Z,2.40
2017-10-19T01:13:31.199Z,2.50
2017-10-19T01:14:32.556Z,2.58
2017-10-19T01:15:34.596Z,2.33
2017-10-19T01:16:35.892Z,2.40
2017-10-19T01:17:37.208Z,2.65
2017-10-19T01:18:38.501Z,2.60
2017-10-19T01:19:39.824Z,2.37
2017-10-19T01:20:41.125Z,2.25
2017-10-19T01:21:42.403Z,2.50
2017-10-19T01:22:43.730Z,2.65
2017-10-19T01:23:45.032Z,2.53
2017-10-19T01:24:46.431Z,2.70
2017-10-19T01:25:47.736Z,2.53
2017-10-19T01:26:49.034Z,2.30
2017-10-19T01:27:51.108Z,2.25
2017-10-19T01:28:52.432Z,2.10
2017-10-19T01:29:53.806Z,2.20
2017-10-19T01:30:55.843Z,2.40
2017-10-19T01:31:57.171Z,2.70
2017-10-19T01:32:58.464Z,2.28
2017-10-19T01:33:59.777Z,2.42
2017-10-19T01:35:01.102Z,2.37
2017-10-19T01:36:02.433Z,2.80
2017-10-19T01:37:03.716Z,2.17
2017-10-19T01:38:05.013Z,2.40
2017-10-19T01:39:06.354Z,2.42
2017-10-19T01:40:07.698Z,2.30
2017-10-19T01:41:09.036Z,2.53
2017-10-19T01:42:10.400Z,2.25
2017-10-19T01:43:11.713Z,2.40
2017-10-19T01:44:13.006Z,2.40
2017-10-19T01:45:15.096Z,2.58
2017-10-19T01:46:16.396Z,2.42
2017-10-19T01:47:18.445Z,2.58
2017-10-19T01:48:20.481Z,2.20
2017-10-19T01:49:21.852Z,2.17
2017-10-19T01:50:23.196Z,2.75
2017-10-19T01:51:24.500Z,2.25
2017-10-19T01:52:25.804Z,2.22
2017-10-19T01:53:27.084Z,2.70
2017-10-19T01:54:28.418Z,2.33
2017-10-19T01:55:29.758Z,2.30
2017-10-19T01:56:31.077Z,2.40
2017-10-19T01:57:33.103Z,2.85
2017-10-19T01:58:34.410Z,2.50
2017-10-19T01:59:36.456Z,2.20
2017-10-19T02:00:38.523Z,2.20
2017-10-19T02:01:39.783Z,2.45
2017-10-19T02:02:41.109Z,2.30
2017-10-19T02:03:42.413Z,2.35
2017-10-19T02:04:43.721Z,2.47
2017-10-19T02:05:45.045Z,2.17
2017-10-19T02:06:46.351Z,2.45
2017-10-19T02:07:47.636Z,2.40
2017-10-19T02:08:48.916Z,2.30
2017-10-19T02:09:50.942Z,2.08
2017-10-19T02:10:52.280Z,2.15
2017-10-19T02:11:53.573Z,2.08
2017-10-19T02:12:54.855Z,2.60
2017-10-19T02:13:56.131Z,2.47
2017-10-19T02:14:57.429Z,2.08
2017-10-19T02:15:58.779Z,2.45
2017-10-19T02:17:00.820Z,2.10
2017-10-19T02:18:02.139Z,2.25
2017-10-19T02:19:03.408Z,2.10
2017-10-19T02:20:04.716Z,2.30
2017-10-19T02:21:06.861Z,2.20
2017-10-19T02:22:08.148Z,2.00
2017-10-19T02:23:11.068Z,2.45
2017-10-19T02:24:12.367Z,2.28
2017-10-19T02:25:14.435Z,2.30
2017-10-19T02:26:15.768Z,2.50
2017-10-19T02:27:17.829Z,2.40
2017-10-19T02:28:19.104Z,2.05
2017-10-19T02:29:20.413Z,2.50
2017-10-19T02:30:21.699Z,2.50
2017-10-19T02:31:23.069Z,2.10
2017-10-19T02:32:25.113Z,2.30
2017-10-19T02:33:27.140Z,2.55
2017-10-19T02:34:28.437Z,2.08
2017-10-19T02:35:29.761Z,2.70
2017-10-19T02:36:31.201Z,1.92
2017-10-19T02:37:32.506Z,2.30
2017-10-19T02:38:33.821Z,2.33
2017-10-19T02:39:35.100Z,2.10
2017-10-19T02:40:37.148Z,2.25
2017-10-19T02:41:38.531Z,2.40
2017-10-19T02:42:39.824Z,2.30
2017-10-19T02:43:41.856Z,2.28
2017-10-19T02:44:43.233Z,2.58
2017-10-19T02:45:45.237Z,2.40
2017-10-19T02:46:46.559Z,2.12
2017-10-19T02:47:47.872Z,2.40
2017-10-19T02:48:49.178Z,2.60
2017-10-19T02:49:50.479Z,2.33
2017-10-19T02:50:51.786Z,2.55
2017-10-19T02:51:53.099Z,2.28
2017-10-19T02:52:54.431Z,2.37
2017-10-19T02:53:56.461Z,2.17
2017-10-19T02:54:57.772Z,2.42
2017-10-19T02:55:59.100Z,2.22
2017-10-19T02:57:00.432Z,2.25
2017-10-19T02:58:01.714Z,1.98
2017-10-19T02:59:03.003Z,2.55
2017-10-19T03:00:04.289Z,2.47
2017-10-19T03:01:05.619Z,2.50
2017-10-19T03:02:07.689Z,2.45
2017-10-19T03:03:09.008Z,2.47
2017-10-19T03:04:10.309Z,2.55
2017-10-19T03:05:11.658Z,2.67
2017-10-19T03:06:12.937Z,2.90
2017-10-19T03:07:14.275Z,2.80
2017-10-19T03:08:15.570Z,2.70
2017-10-19T03:09:19.921Z,2.50
2017-10-19T03:10:21.207Z,2.22
2017-10-19T03:11:22.496Z,2.58
2017-10-19T03:12:23.820Z,2.53
2017-10-19T03:13:25.153Z,2.50
2017-10-19T03:14:26.443Z,2.62
2017-10-19T03:15:28.479Z,2.60
2017-10-19T03:16:30.555Z,2.80
2017-10-19T03:17:32.641Z,2.83
2017-10-19T03:18:33.927Z,2.67
2017-10-19T03:19:35.243Z,2.53
2017-10-19T03:20:36.560Z,2.70
2017-10-19T03:21:37.856Z,2.42
2017-10-19T03:22:39.915Z,2.15
2017-10-19T03:23:41.989Z,2.58
2017-10-19T03:24:43.284Z,2.72
2017-10-19T03:25:44.569Z,2.37
2017-10-19T03:26:45.883Z,2.60
2017-10-19T03:27:47.947Z,2.97
2017-10-19T03:28:49.239Z,2.55
2017-10-19T03:29:50.530Z,2.33
2017-10-19T03:30:51.820Z,2.60
2017-10-19T03:31:53.132Z,3.28
2017-10-19T03:32:54.460Z,3.55
2017-10-19T03:33:55.825Z,4.47
2017-10-19T03:34:57.149Z,4.72
2017-10-19T03:35:58.426Z,4.22
2017-10-19T03:36:59.695Z,4.20
2017-10-19T03:38:01.018Z,3.78
2017-10-19T03:39:03.135Z,3.60
2017-10-19T03:40:04.416Z,3.78
2017-10-19T03:41:05.719Z,3.20
2017-10-19T03:42:07.824Z,2.80
2017-10-19T03:43:09.131Z,2.80
2017-10-19T03:44:11.174Z,2.55
2017-10-19T03:45:12.465Z,2.67
2017-10-19T03:46:13.765Z,2.45
2017-10-19T03:47:15.804Z,2.30
2017-10-19T03:48:17.889Z,2.37
2017-10-19T03:49:20.016Z,2.40
2017-10-19T03:50:21.360Z,2.53
2017-10-19T03:51:23.375Z,2.47
2017-10-19T03:52:24.689Z,2.70
2017-10-19T03:53:26.058Z,2.58
2017-10-19T03:54:27.346Z,2.83
2017-10-19T03:55:29.402Z,2.80
2017-10-19T03:56:30.717Z,2.35
2017-10-19T03:57:32.131Z,2.83
2017-10-19T03:58:33.451Z,2.65
2017-10-19T03:59:34.795Z,3.00
2017-10-19T04:00:37.014Z,2.85
2017-10-19T04:01:39.065Z,3.12
2017-10-19T04:02:41.117Z,3.10
2017-10-19T04:03:43.195Z,3.10
2017-10-19T04:04:44.504Z,3.17
2017-10-19T04:05:46.540Z,3.35
2017-10-19T04:06:47.860Z,3.15
2017-10-19T04:07:49.201Z,3.30
2017-10-19T04:08:50.505Z,3.28
2017-10-19T04:09:51.808Z,3.75
2017-10-19T04:10:53.834Z,3.65
2017-10-19T04:11:55.116Z,3.60
2017-10-19T04:12:56.419Z,3.78
2017-10-19T04:13:57.764Z,3.70
2017-10-19T04:14:59.100Z,3.55
2017-10-19T04:16:00.428Z,3.00
2017-10-19T04:17:02.447Z,3.70
2017-10-19T04:18:03.783Z,3.22
2017-10-19T04:19:05.108Z,3.03
2017-10-19T04:20:06.413Z,3.42
2017-10-19T04:21:07.705Z,3.30
2017-10-19T04:22:09.014Z,3.47
2017-10-19T04:23:10.344Z,3.22
2017-10-19T04:24:12.440Z,3.00
2017-10-19T04:25:13.779Z,3.33
2017-10-19T04:26:15.071Z,3.40
2017-10-19T04:27:17.089Z,3.20
2017-10-19T04:28:18.395Z,3.20
2017-10-19T04:29:19.764Z,3.53
2017-10-19T04:30:21.071Z,3.37
2017-10-19T04:31:22.371Z,2.80
2017-10-19T04:32:24.455Z,3.08
2017-10-19T04:33:25.763Z,3.30
2017-10-19T04:34:27.825Z,3.40
2017-10-19T04:35:29.859Z,3.20
2017-10-19T04:36:31.212Z,3.12
2017-10-19T04:37:33.239Z,3.10
2017-10-19T04:38:34.579Z,3.08
2017-10-19T04:39:35.923Z,3.37
2017-10-19T04:40:37.236Z,3.05
2017-10-19T04:41:38.498Z,3.15
2017-10-19T04:42:39.868Z,3.60
2017-10-19T04:43:41.951Z,3.28
2017-10-19T04:44:43.292Z,3.60
2017-10-19T04:45:44.596Z,3.50
2017-10-19T04:46:46.652Z,3.60
2017-10-19T04:47:48.711Z,4.75
2017-10-19T04:48:50.748Z,4.35
2017-10-19T04:49:52.098Z,4.35
2017-10-19T04:50:54.136Z,3.72
2017-10-19T04:51:55.451Z,4.07
2017-10-19T04:52:56.738Z,3.85
2017-10-19T04:53:58.056Z,3.40
2017-10-19T04:55:00.173Z,3.25
2017-10-19T04:56:01.458Z,3.00
2017-10-19T04:57:03.479Z,3.03
2017-10-19T04:58:04.799Z,3.10
2017-10-19T04:59:06.116Z,3.17
2017-10-19T05:00:07.487Z,2.87
2017-10-19T05:01:08.768Z,3.03
2017-10-19T05:02:10.804Z,2.83
2017-10-19T05:03:12.829Z,3.17
2017-10-19T05:04:14.899Z,3.40
2017-10-19T05:05:16.236Z,3.65
2017-10-19T05:06:17.530Z,4.22
2017-10-19T05:07:18.847Z,5.00
2017-10-19T05:08:20.865Z,4.25
2017-10-19T05:09:22.181Z,4.68
2017-10-19T05:10:23.507Z,4.70
2017-10-19T05:11:24.865Z,4.53
2017-10-19T05:12:26.216Z,4.00
2017-10-19T05:13:28.469Z,3.78
2017-10-19T05:14:29.786Z,3.95
2017-10-19T05:15:31.206Z,3.58
2017-10-19T05:16:32.515Z,3.75
2017-10-19T05:17:34.568Z,3.87
2017-10-19T05:18:35.856Z,4.20
2017-10-19T05:19:37.176Z,3.78
2017-10-19T05:20:38.561Z,4.25
2017-10-19T05:21:39.873Z,4.05
2017-10-19T05:22:41.190Z,4.15
2017-10-19T05:23:42.535Z,4.00
2017-10-19T05:24:43.827Z,3.90
2017-10-19T05:25:45.360Z,3.70
2017-10-19T05:26:46.792Z,3.70
2017-10-19T05:27:48.160Z,3.20
2017-10-19T05:28:50.324Z,3.47
2017-10-19T05:29:52.441Z,3.53
2017-10-19T05:30:53.908Z,3.55
2017-10-19T05:31:56.135Z,3.60
2017-10-19T05:32:57.541Z,3.55
2017-10-19T05:33:59.160Z,3.30
2017-10-19T05:35:00.660Z,3.28
2017-10-19T05:36:02.095Z,3.40
2017-10-19T05:37:03.413Z,3.12
2017-10-19T05:38:04.741Z,3.75
2017-10-19T05:39:06.021Z,3.33
2017-10-19T05:40:07.357Z,2.83
2017-10-19T05:41:08.681Z,3.42
2017-10-19T05:42:09.991Z,3.50
2017-10-19T05:43:11.332Z,3.42
2017-10-19T05:44:12.618Z,3.62
2017-10-19T05:45:13.915Z,4.07
2017-10-19T05:46:15.252Z,3.58
2017-10-19T05:47:16.562Z,3.47
2017-10-19T05:48:18.585Z,3.60
2017-10-19T05:49:19.861Z,3.30
2017-10-19T05:50:21.906Z,2.92
2017-10-19T05:51:24.011Z,3.60
2017-10-19T05:52:25.308Z,3.25
2017-10-19T05:53:27.357Z,2.97
2017-10-19T05:54:29.396Z,3.20
2017-10-19T05:55:30.713Z,3.35
2017-10-19T05:56:32.041Z,3.25
2017-10-19T05:57:33.309Z,2.90
2017-10-19T05:58:34.587Z,3.22
2017-10-19T05:59:35.889Z,3.20
2017-10-19T06:00:37.170Z,3.55
2017-10-19T06:01:38.520Z,2.97
2017-10-19T06:02:39.825Z,3.35
2017-10-19T06:03:41.153Z,3.20
2017-10-19T06:04:42.468Z,3.33
2017-10-19T06:05:43.795Z,3.10
2017-10-19T06:06:45.145Z,2.85
2017-10-19T06:07:46.434Z,3.17
2017-10-19T06:08:47.774Z,3.30
2017-10-19T06:09:49.104Z,3.10
2017-10-19T06:10:50.393Z,2.92
2017-10-19T06:11:51.712Z,3.12
2017-10-19T06:12:53.011Z,3.17
2017-10-19T06:13:54.317Z,3.17
2017-10-19T06:14:55.621Z,2.90
2017-10-19T06:15:56.915Z,2.70
2017-10-19T06:16:58.966Z,2.92
2017-10-19T06:18:00.995Z,2.60
2017-10-19T06:19:02.327Z,3.00
2017-10-19T06:20:04.286Z,2.72
2017-10-19T06:21:05.572Z,2.40
2017-10-19T06:22:06.912Z,2.50
2017-10-19T06:23:08.186Z,2.35
2017-10-19T06:24:09.466Z,2.28
2017-10-19T06:25:10.760Z,2.33
2017-10-19T06:26:12.076Z,2.05
2017-10-19T06:27:13.392Z,2.20
2017-10-19T06:28:14.704Z,2.30
2017-10-19T06:29:16.752Z,2.10
2017-10-19T06:30:18.849Z,2.20
2017-10-19T06:31:20.161Z,2.17
2017-10-19T06:32:22.285Z,2.20
2017-10-19T06:33:23.573Z,1.85
2017-10-19T06:34:24.888Z,2.50
2017-10-19T06:35:26.916Z,2.37
2017-10-19T06:36:28.236Z,2.35
2017-10-19T06:37:29.608Z,2.42
2017-10-19T06:38:30.937Z,2.45
2017-10-19T06:39:32.245Z,2.47
2017-10-19T06:40:33.523Z,2.10
2017-10-19T06:41:34.797Z,2.20
2017-10-19T06:42:36.133Z,2.25
2017-10-19T06:43:37.515Z,2.55
2017-10-19T06:44:38.862Z,3.33
2017-10-19T06:45:40.169Z,3.47
2017-10-19T06:46:41.478Z,4.60
2017-10-19T06:47:42.808Z,4.05
2017-10-19T06:48:44.102Z,3.58
2017-10-19T06:49:45.397Z,2.70
2017-10-19T06:50:46.692Z,2.40
2017-10-19T06:51:47.976Z,2.22
2017-10-19T06:52:49.300Z,2.30
2017-10-19T06:53:50.588Z,2.15
2017-10-19T06:54:51.947Z,2.40
2017-10-19T06:55:53.225Z,2.30
2017-10-19T06:56:54.507Z,2.28
2017-10-19T06:57:55.881Z,2.10
2017-10-19T06:58:57.161Z,2.30
2017-10-19T06:59:58.468Z,2.17
2017-10-19T07:00:59.770Z,1.90
2017-10-19T07:02:01.075Z,2.20
2017-10-19T07:03:02.425Z,2.37
2017-10-19T07:04:03.701Z,1.98
2017-10-19T07:05:05.783Z,2.45
2017-10-19T07:06:07.076Z,2.40
2017-10-19T07:07:08.405Z,2.03
2017-10-19T07:08:09.740Z,2.22
2017-10-19T07:09:11.043Z,2.03
2017-10-19T07:10:12.345Z,1.90
2017-10-19T07:11:14.379Z,2.20
2017-10-19T07:12:15.684Z,1.92
2017-10-19T07:13:16.996Z,2.25
2017-10-19T07:14:18.297Z,2.30
2017-10-19T07:15:20.314Z,2.30
2017-10-19T07:16:21.610Z,2.30
2017-10-19T07:17:22.882Z,2.47
2017-10-19T07:18:24.203Z,2.10
2017-10-19T07:19:25.522Z,2.45
2017-10-19T07:20:26.796Z,2.20
2017-10-19T07:21:28.108Z,2.90
2017-10-19T07:22:29.384Z,2.47
2017-10-19T07:23:30.727Z,2.28
2017-10-19T07:24:32.068Z,2.15
2017-10-19T07:25:33.357Z,2.75
2017-10-19T07:26:34.637Z,2.35
2017-10-19T07:27:35.924Z,1.90
2017-10-19T07:28:37.251Z,1.80
2017-10-19T07:29:39.355Z,1.87
2017-10-19T07:30:40.625Z,1.92
2017-10-19T07:31:41.927Z,1.98
2017-10-19T07:32:43.249Z,1.80
2017-10-19T07:33:44.572Z,2.30
2017-10-19T07:34:45.893Z,2.03
2017-10-19T07:35:47.913Z,1.77
2017-10-19T07:36:49.232Z,2.30
2017-10-19T07:37:50.516Z,2.83
2017-10-19T07:38:52.563Z,2.30
2017-10-19T07:39:53.835Z,2.15
2017-10-19T07:40:55.111Z,2.70
2017-10-19T07:41:56.417Z,2.08
2017-10-19T07:42:57.708Z,1.75
2017-10-19T07:43:59.097Z,1.80
2017-10-19T07:45:00.398Z,2.03
2017-10-19T07:46:02.442Z,1.92
2017-10-19T07:47:03.743Z,1.90
2017-10-19T07:48:05.020Z,2.22
2017-10-19T07:49:07.091Z,2.22
2017-10-19T07:50:09.119Z,1.80
2017-10-19T07:51:10.400Z,1.95
2017-10-19T07:52:11.694Z,1.77
2017-10-19T07:53:12.968Z,1.70
2017-10-19T07:54:14.332Z,1.62
2017-10-19T07:55:15.619Z,1.80
2017-10-19T07:56:17.655Z,1.45
2017-10-19T07:57:18.924Z,1.90
2017-10-19T07:58:20.944Z,1.75
2017-10-19T07:59:22.256Z,1.50
2017-10-19T08:00:23.537Z,1.60
2017-10-19T08:01:25.584Z,1.92
2017-10-19T08:02:27.065Z,1.70
2017-10-19T08:03:28.370Z,1.58
2017-10-19T08:04:30.459Z,1.65
2017-10-19T08:05:31.756Z,1.95
2017-10-19T08:06:33.044Z,1.75
2017-10-19T08:07:34.328Z,1.75
2017-10-19T08:08:35.610Z,1.90
2017-10-19T08:09:36.945Z,1.42
2017-10-19T08:10:38.218Z,1.75
2017-10-19T08:11:39.508Z,1.60
2017-10-19T08:12:40.824Z,1.50
2017-10-19T08:13:42.102Z,1.65
2017-10-19T08:14:43.444Z,1.75
2017-10-19T08:15:44.761Z,1.70
2017-10-19T08:16:46.072Z,1.70
2017-10-19T08:17:47.354Z,1.60
2017-10-19T08:18:48.663Z,1.60
2017-10-19T08:19:50.741Z,1.60
2017-10-19T08:20:52.036Z,1.90
2017-10-19T08:21:53.322Z,1.55
2017-10-19T08:22:54.630Z,1.42
2017-10-19T08:23:56.698Z,1.40
2017-10-19T08:24:58.009Z,1.67
2017-10-19T08:25:59.301Z,1.50
2017-10-19T08:27:00.620Z,1.60
2017-10-19T08:28:01.942Z,1.50
2017-10-19T08:29:03.252Z,1.50
2017-10-19T08:30:04.595Z,1.60
2017-10-19T08:31:05.898Z,1.60
2017-10-19T08:32:07.228Z,1.73
2017-10-19T08:33:08.508Z,2.03
2017-10-19T08:34:09.797Z,1.70
2017-10-19T08:35:11.133Z,1.67
2017-10-19T08:36:12.438Z,1.58
2017-10-19T08:37:13.722Z,1.80
2017-10-19T08:38:14.998Z,1.70
2017-10-19T08:39:17.003Z,1.70
2017-10-19T08:40:18.315Z,1.60
2017-10-19T08:41:19.919Z,2.03
2017-10-19T08:42:21.204Z,1.70
2017-10-19T08:43:22.529Z,1.73
2017-10-19T08:44:24.637Z,1.70
2017-10-19T08:45:25.958Z,1.58
2017-10-19T08:46:27.244Z,1.65
2017-10-19T08:47:29.261Z,1.70
2017-10-19T08:48:30.547Z,1.40
2017-10-19T08:49:32.579Z,1.80
2017-10-19T08:50:33.912Z,1.83
2017-10-19T08:51:35.197Z,1.75
2017-10-19T08:52:36.493Z,1.80
2017-10-19T08:53:37.772Z,1.50
2017-10-19T08:54:39.072Z,1.77
2017-10-19T08:55:40.389Z,1.70
2017-10-19T08:56:41.686Z,1.60
2017-10-19T08:57:42.985Z,1.87
2017-10-19T08:58:44.299Z,1.80
2017-10-19T08:59:45.632Z,1.60
2017-10-19T09:00:46.936Z,1.70
2017-10-19T09:01:48.228Z,1.80
2017-10-19T09:02:50.326Z,1.60
2017-10-19T09:03:51.605Z,1.50
2017-10-19T09:04:52.881Z,1.42
2017-10-19T09:05:54.977Z,1.90
2017-10-19T09:06:56.263Z,1.60
2017-10-19T09:07:58.295Z,1.90
2017-10-19T09:08:59.576Z,1.60
2017-10-19T09:10:00.869Z,2.10
2017-10-19T09:11:02.185Z,2.00
2017-10-19T09:12:03.486Z,1.80
2017-10-19T09:13:04.812Z,1.75
2017-10-19T09:14:06.834Z,1.50
2017-10-19T09:15:08.126Z,2.00
2017-10-19T09:16:10.192Z,1.90
2017-10-19T09:17:11.472Z,1.80
2017-10-19T09:18:12.732Z,1.50
2017-10-19T09:19:14.748Z,1.60
2017-10-19T09:20:16.052Z,1.40
2017-10-19T09:21:17.372Z,1.60
2017-10-19T09:22:19.395Z,1.70
2017-10-19T09:23:20.697Z,1.60
2017-10-19T09:24:21.991Z,1.40
2017-10-19T09:25:24.046Z,1.40
2017-10-19T09:26:26.084Z,1.50
2017-10-19T09:27:27.376Z,1.55
2017-10-19T09:28:28.657Z,1.95
2017-10-19T09:29:29.941Z,1.67
2017-10-19T09:30:31.223Z,1.30
2017-10-19T09:31:32.578Z,1.90
2017-10-19T09:32:33.871Z,1.42
2017-10-19T09:33:35.176Z,1.50
2017-10-19T09:34:36.476Z,1.58
2017-10-19T09:35:37.751Z,1.75
2017-10-19T09:36:39.090Z,1.58
2017-10-19T09:37:40.393Z,1.50
2017-10-19T09:38:41.708Z,1.50
2017-10-19T09:39:43.022Z,1.48
2017-10-19T09:40:44.281Z,1.60
2017-10-19T09:41:45.599Z,1.55
2017-10-19T09:42:46.896Z,1.60
2017-10-19T09:43:48.923Z,1.60
2017-10-19T09:44:50.244Z,1.33
2017-10-19T09:45:51.545Z,1.70
2017-10-19T09:46:52.889Z,1.70
2017-10-19T09:47:54.208Z,1.45
2017-10-19T09:48:56.252Z,1.55
2017-10-19T09:49:58.265Z,1.37
2017-10-19T09:50:59.535Z,1.30
2017-10-19T09:52:01.599Z,1.52
2017-10-19T09:53:03.636Z,1.42
2017-10-19T09:54:04.916Z,1.40
2017-10-19T09:55:06.193Z,1.45
2017-10-19T09:56:07.501Z,1.60
2017-10-19T09:57:08.835Z,1.17
2017-10-19T09:59:18.093Z,1.77
2017-10-19T10:00:19.391Z,1.60
2017-10-19T10:01:20.680Z,1.60
2017-10-19T10:02:21.990Z,1.80
2017-10-19T10:03:23.297Z,2.08
2017-10-19T10:04:25.297Z,1.67
2017-10-19T10:05:27.329Z,1.60
2017-10-19T10:06:28.628Z,2.00
2017-10-19T10:07:30.689Z,1.90
2017-10-19T10:08:32.731Z,2.08
2017-10-19T10:09:34.758Z,2.20
2017-10-19T10:10:36.063Z,1.90
2017-10-19T10:11:37.336Z,2.10
2017-10-19T10:12:38.757Z,2.10
2017-10-19T10:13:40.057Z,2.00
2017-10-19T10:14:42.101Z,1.70
2017-10-19T10:15:44.150Z,1.80
2017-10-19T10:16:45.432Z,1.70
2017-10-19T10:17:46.769Z,2.25
2017-10-19T10:18:48.087Z,2.22
2017-10-19T10:19:49.375Z,1.92
2017-10-19T10:20:50.677Z,1.80
2017-10-19T10:21:51.972Z,1.95
2017-10-19T10:22:53.309Z,1.90
2017-10-19T10:23:54.617Z,1.98
2017-10-19T10:24:55.897Z,1.92
2017-10-19T10:25:57.929Z,2.12
2017-10-19T10:26:59.985Z,2.30
2017-10-19T10:28:01.379Z,1.87
2017-10-19T10:29:02.695Z,1.83
2017-10-19T10:30:04.703Z,1.90
2017-10-19T10:31:06.012Z,1.87
2017-10-19T10:32:07.313Z,2.03
2017-10-19T10:33:09.365Z,1.90
2017-10-19T10:34:11.398Z,1.80
2017-10-19T10:35:12.682Z,1.67
2017-10-19T10:36:13.965Z,1.87
2017-10-19T10:37:15.248Z,1.95
2017-10-19T10:38:17.315Z,1.67
2017-10-19T10:39:18.605Z,1.70
2017-10-19T10:40:19.891Z,1.73
2017-10-19T10:41:21.183Z,1.60
2017-10-19T10:42:22.462Z,1.87
2017-10-19T10:43:23.784Z,1.75
2017-10-19T10:44:25.808Z,1.80
2017-10-19T10:45:27.120Z,1.60
2017-10-19T10:46:28.439Z,2.00
2017-10-19T10:47:30.494Z,1.90
2017-10-19T10:48:31.789Z,1.70
2017-10-19T10:49:33.077Z,1.77
2017-10-19T10:50:34.362Z,2.00
2017-10-19T10:51:35.682Z,1.98
2017-10-19T10:52:36.964Z,1.92
2017-10-19T10:53:38.291Z,1.83
2017-10-19T10:54:40.331Z,1.92
2017-10-19T10:55:42.544Z,2.08
2017-10-19T10:56:43.860Z,1.98
2017-10-19T10:57:45.148Z,2.12
2017-10-19T10:58:46.501Z,1.87
2017-10-19T10:59:47.780Z,2.10
2017-10-19T11:00:49.066Z,1.83
2017-10-19T11:01:50.354Z,1.95
2017-10-19T11:02:51.646Z,2.10
2017-10-19T11:03:52.974Z,2.00
2017-10-19T11:04:54.456Z,2.05
2017-10-19T11:05:55.744Z,2.20
2017-10-19T11:06:57.029Z,1.85
2017-10-19T11:07:58.316Z,2.45
2017-10-19T11:09:00.372Z,2.17
2017-10-19T11:10:01.676Z,2.00
2017-10-19T11:11:02.954Z,2.10
2017-10-19T11:12:04.306Z,2.05
2017-10-19T11:13:05.592Z,1.87
2017-10-19T11:14:06.937Z,1.85
2017-10-19T11:15:08.205Z,2.30
2017-10-19T11:16:09.484Z,2.37
2017-10-19T11:17:10.761Z,2.00
2017-10-19T11:18:12.082Z,1.98
2017-10-19T11:19:13.428Z,2.25
2017-10-19T11:20:14.705Z,2.05
2017-10-19T11:21:16.007Z,2.10
2017-10-19T11:22:17.284Z,2.37
2017-10-19T11:23:18.572Z,2.00
2017-10-19T11:24:19.886Z,2.20
2017-10-19T11:25:21.157Z,2.12
2017-10-19T11:26:22.456Z,2.30
2017-10-19T11:27:23.724Z,2.20
2017-10-19T11:28:24.993Z,2.08
2017-10-19T11:29:26.331Z,2.15
2017-10-19T11:30:27.626Z,2.40
2017-10-19T11:31:28.926Z,2.40
2017-10-19T11:32:30.953Z,2.42
2017-10-19T11:33:32.280Z,2.45
2017-10-19T11:34:33.593Z,2.67
2017-10-19T11:35:34.882Z,2.45
2017-10-19T11:36:36.165Z,3.00
2017-10-19T11:37:37.438Z,2.22
2017-10-19T11:38:38.707Z,2.45
2017-10-19T11:39:40.786Z,2.33
2017-10-19T11:40:42.092Z,2.50
2017-10-19T11:41:43.392Z,2.28
2017-10-19T11:42:44.677Z,2.33
2017-10-19T11:43:46.705Z,2.22
2017-10-19T11:44:48.012Z,2.40
2017-10-19T11:45:49.325Z,2.40
2017-10-19T11:46:50.626Z,2.20
2017-10-19T11:47:51.927Z,2.80
2017-10-19T11:48:53.216Z,2.17
2017-10-19T11:49:55.284Z,2.50
2017-10-19T11:50:56.557Z,2.40
2017-10-19T11:51:57.828Z,2.60
2017-10-19T11:52:59.096Z,2.53
2017-10-19T11:54:00.408Z,2.70
2017-10-19T11:55:01.750Z,2.58
2017-10-19T11:56:03.056Z,2.42
2017-10-19T11:57:04.326Z,3.15
2017-10-19T11:58:06.422Z,2.83
2017-10-19T11:59:07.701Z,2.72
2017-10-19T12:00:09.047Z,2.47
2017-10-19T12:01:10.335Z,2.87
2017-10-19T12:02:11.640Z,2.50
2017-10-19T12:03:13.680Z,2.58
2017-10-19T12:04:14.985Z,2.33
2017-10-19T12:05:16.315Z,2.60
2017-10-19T12:06:17.622Z,2.65
2017-10-19T12:07:18.904Z,2.95
2017-10-19T12:08:20.184Z,2.80
2017-10-19T12:09:22.224Z,2.25
2017-10-19T12:10:23.545Z,2.78
2017-10-19T12:11:24.818Z,2.67
2017-10-19T12:12:26.830Z,2.20
2017-10-19T12:13:28.119Z,2.60
2017-10-19T12:14:29.387Z,2.67
2017-10-19T12:15:30.718Z,2.70
2017-10-19T12:16:31.991Z,2.60
2017-10-19T12:17:33.275Z,2.87
2017-10-19T12:18:34.565Z,2.97
2017-10-19T12:19:35.850Z,2.83
2017-10-19T12:20:37.177Z,2.80
2017-10-19T12:21:38.457Z,2.70
2017-10-19T12:22:39.738Z,3.03
2017-10-19T12:23:41.779Z,2.50
2017-10-19T12:24:43.068Z,2.80
2017-10-19T12:25:44.497Z,2.55
2017-10-19T12:26:45.773Z,2.62
2017-10-19T12:27:47.055Z,2.87
2017-10-19T12:28:48.328Z,2.75
2017-10-19T12:29:50.360Z,2.95
2017-10-19T12:30:51.689Z,2.60
2017-10-19T12:31:52.959Z,2.83
2017-10-19T12:32:54.997Z,2.70
2017-10-19T12:33:56.335Z,3.12
2017-10-19T12:34:57.624Z,3.05
2017-10-19T12:35:58.945Z,2.80
2017-10-19T12:37:00.221Z,2.80
2017-10-19T12:38:02.316Z,2.60
2017-10-19T12:39:03.672Z,3.00
2017-10-19T12:40:04.945Z,2.97
2017-10-19T12:41:07.015Z,2.58
2017-10-19T12:42:08.294Z,3.03
2017-10-19T12:43:09.596Z,2.70
2017-10-19T12:44:10.872Z,2.47
2017-10-19T12:45:12.170Z,2.80
2017-10-19T12:46:13.545Z,2.80
2017-10-19T12:47:14.829Z,2.12
2017-10-19T12:48:16.886Z,2.65
2017-10-19T12:49:18.910Z,2.70
2017-10-19T12:50:20.189Z,2.90
2017-10-19T12:51:21.506Z,2.97
2017-10-19T12:52:23.536Z,2.83
2017-10-19T12:53:24.808Z,2.55
2017-10-19T12:54:26.844Z,3.05
2017-10-19T12:55:28.145Z,2.95
2017-10-19T12:56:29.464Z,2.80
2017-10-19T12:57:30.729Z,2.65
2017-10-19T12:58:32.007Z,3.10
2017-10-19T12:59:34.039Z,2.67
2017-10-19T13:00:35.310Z,2.58
2017-10-19T13:01:36.640Z,3.05
2017-10-19T13:02:38.652Z,2.87
2017-10-19T13:03:39.937Z,2.40
2017-10-19T13:04:41.235Z,2.50
2017-10-19T13:05:42.513Z,2.55
2017-10-19T13:06:43.832Z,2.55
2017-10-19T13:07:45.847Z,2.60
2017-10-19T13:08:47.128Z,2.50
2017-10-19T13:09:49.167Z,2.30
2017-10-19T13:10:50.454Z,2.90
2017-10-19T13:11:51.751Z,2.30
2017-10-19T13:12:53.825Z,2.25
2017-10-19T13:13:55.144Z,2.65
2017-10-19T13:14:57.168Z,2.90
2017-10-19T13:15:58.482Z,2.58
2017-10-19T13:16:59.812Z,2.90
2017-10-19T13:18:01.086Z,2.62
2017-10-19T13:19:02.360Z,2.50
2017-10-19T13:20:04.397Z,2.92
2017-10-19T13:21:05.689Z,2.72
2017-10-19T13:22:07.764Z,2.83
2017-10-19T13:23:09.056Z,3.78
2017-10-19T13:24:10.328Z,3.35
2017-10-19T13:25:11.623Z,2.55
2017-10-19T13:26:12.902Z,3.15
2017-10-19T13:27:14.977Z,3.28
2017-10-19T13:28:16.276Z,3.92
2017-10-19T13:29:17.563Z,3.60
2017-10-19T13:30:18.868Z,2.97
2017-10-19T13:31:20.157Z,3.00
2017-10-19T13:32:22.210Z,3.17
2017-10-19T13:33:24.233Z,2.83
2017-10-19T13:34:25.542Z,3.70
2017-10-19T13:35:26.831Z,3.80
2017-10-19T13:36:28.862Z,3.85
2017-10-19T13:37:30.172Z,3.78
2017-10-19T13:38:31.457Z,4.03
2017-10-19T13:39:33.479Z,4.10